createdAt,value
2022-10-06T00:03:35.993Z,15.00
2022-10-06T00:07:38.775Z,14.90
2022-10-06T00:11:41.498Z,15.10
2022-10-06T00:15:44.326Z,15.00
2022-10-06T00:19:48.441Z,14.90
2022-10-06T00:23:51.393Z,14.80
2022-10-06T00:27:54.155Z,15.00
2022-10-06T00:31:56.849Z,14.90
2022-10-06T00:36:01.146Z,14.80
2022-10-06T00:40:06.655Z,14.90
2022-10-06T00:44:09.341Z,14.80
2022-10-06T00:48:17.170Z,14.90
2022-10-06T00:52:25.286Z,14.90
2022-10-06T00:56:28.070Z,15.00
2022-10-06T01:00:30.947Z,14.90
2022-10-06T01:04:36.093Z,14.90
2022-10-06T01:08:40.616Z,15.00
2022-10-06T01:12:43.518Z,14.90
2022-10-06T01:16:51.846Z,14.90
2022-10-06T01:21:00.224Z,14.90
2022-10-06T01:25:06.161Z,14.70
2022-10-06T01:29:09.238Z,14.70
2022-10-06T01:33:13.070Z,14.60
2022-10-06T01:37:16.503Z,14.50
2022-10-06T01:41:21.686Z,14.40
2022-10-06T01:45:24.995Z,14.20
2022-10-06T01:49:28.200Z,14.20
2022-10-06T01:53:31.147Z,14.20
2022-10-06T01:57:40.912Z,14.20
2022-10-06T02:01:44.547Z,14.20
2022-10-06T02:05:47.301Z,14.30
2022-10-06T02:09:50.129Z,14.30
2022-10-06T02:13:54.787Z,14.30
2022-10-06T02:17:57.562Z,14.30
2022-10-06T02:22:02.965Z,14.40
2022-10-06T02:26:06.995Z,14.40
2022-10-06T02:30:14.581Z,14.40
2022-10-06T02:34:18.261Z,14.30
2022-10-06T02:38:21.830Z,14.30
2022-10-06T02:42:24.572Z,14.30
2022-10-06T02:46:28.734Z,14.30
2022-10-06T02:50:32.431Z,14.40
2022-10-06T02:54:35.322Z,14.30
2022-10-06T02:58:39.812Z,14.20
2022-10-06T03:02:46.957Z,14.10
2022-10-06T03:06:50.095Z,14.00
2022-10-06T03:11:02.493Z,13.90
2022-10-06T03:15:06.097Z,13.80
2022-10-06T03:19:11.581Z,13.80
2022-10-06T03:23:14.481Z,13.80
2022-10-06T03:27:17.681Z,13.60
2022-10-06T03:31:21.400Z,13.50
2022-10-06T03:35:26.115Z,13.40
2022-10-06T03:39:29.031Z,13.40
2022-10-06T03:43:31.793Z,13.30
2022-10-06T03:47:34.912Z,13.20
2022-10-06T03:51:40.662Z,13.20
2022-10-06T03:55:48.010Z,13.10
2022-10-06T03:59:50.835Z,13.10
2022-10-06T04:03:55.238Z,13.00
2022-10-06T04:07:59.422Z,12.90
2022-10-06T04:12:02.192Z,12.80
2022-10-06T04:16:11.849Z,12.80
2022-10-06T04:20:14.774Z,12.70
2022-10-06T04:24:19.275Z,12.70
2022-10-06T04:28:24.212Z,12.70
2022-10-06T04:32:27.354Z,12.70
2022-10-06T04:36:32.713Z,12.60
2022-10-06T04:40:37.551Z,12.60
2022-10-06T04:44:40.400Z,12.60
2022-10-06T04:48:43.442Z,12.60
2022-10-06T04:52:46.494Z,12.70
2022-10-06T04:56:50.869Z,12.50
2022-10-06T05:00:57.234Z,12.50
2022-10-06T05:05:00.537Z,12.50
2022-10-06T05:09:05.765Z,12.40
2022-10-06T05:13:11.491Z,12.30
2022-10-06T05:17:14.364Z,12.30
2022-10-06T05:21:19.621Z,12.40
2022-10-06T05:25:24.171Z,12.40
2022-10-06T05:29:28.407Z,12.40
2022-10-06T05:33:34.313Z,12.40
2022-10-06T05:37:37.645Z,12.30
2022-10-06T05:41:40.615Z,12.30
2022-10-06T05:45:57.926Z,12.40
2022-10-06T05:50:02.047Z,12.40
2022-10-06T05:54:05.451Z,12.30
2022-10-06T05:58:08.868Z,12.30
2022-10-06T06:02:13.138Z,12.40
2022-10-06T06:06:20.804Z,12.40
2022-10-06T06:10:24.266Z,12.50
2022-10-06T06:14:41.023Z,12.40
2022-10-06T06:18:47.192Z,12.50
2022-10-06T06:22:53.308Z,12.50
2022-10-06T06:26:58.711Z,12.60
2022-10-06T06:31:03.583Z,12.50
2022-10-06T06:35:09.382Z,12.60
2022-10-06T06:39:14.948Z,12.70
2022-10-06T06:43:18.223Z,12.80
2022-10-06T06:47:38.975Z,13.00
2022-10-06T06:51:45.194Z,13.10
2022-10-06T06:55:51.075Z,13.30
2022-10-06T06:59:56.920Z,13.50
2022-10-06T07:04:00.285Z,13.70
2022-10-06T07:08:09.743Z,13.80
2022-10-06T07:12:13.330Z,14.00
2022-10-06T07:16:41.214Z,14.10
2022-10-06T07:21:01.350Z,14.20
2022-10-06T07:25:12.557Z,14.40
2022-10-06T07:29:18.218Z,14.50
2022-10-06T07:33:20.979Z,14.70
2022-10-06T07:37:26.291Z,14.90
2022-10-06T07:41:32.608Z,15.10
2022-10-06T07:45:41.198Z,15.20
2022-10-06T07:49:48.126Z,15.50
2022-10-06T07:53:51.289Z,15.60
2022-10-06T07:58:05.058Z,15.80
2022-10-06T08:02:07.794Z,16.10
2022-10-06T08:06:12.321Z,16.40
2022-10-06T08:10:18.352Z,16.70
2022-10-06T08:14:23.999Z,17.40
2022-10-06T08:18:45.381Z,18.00
2022-10-06T08:22:49.336Z,19.10
2022-10-06T08:26:52.002Z,20.70
2022-10-06T08:30:56.122Z,22.40
2022-10-06T08:34:59.109Z,23.40
2022-10-06T08:39:02.079Z,25.60
2022-10-06T08:43:04.875Z,26.60
2022-10-06T08:47:17.662Z,28.70
2022-10-06T08:51:33.883Z,30.10
2022-10-06T08:55:43.106Z,31.50
2022-10-06T08:59:49.009Z,32.70
2022-10-06T09:03:55.538Z,33.70
2022-10-06T09:08:16.606Z,34.60
2022-10-06T09:12:24.659Z,35.30
2022-10-06T09:16:29.980Z,36.00
2022-10-06T09:20:37.987Z,36.60
2022-10-06T09:24:47.181Z,37.60
2022-10-06T09:28:50.853Z,38.40
2022-10-06T09:32:58.907Z,38.80
2022-10-06T09:37:05.543Z,38.80
2022-10-06T09:41:08.384Z,39.00
2022-10-06T09:45:26.339Z,40.10
2022-10-06T09:49:31.291Z,40.10
2022-10-06T09:53:37.760Z,40.00
2022-10-06T09:57:48.543Z,40.00
2022-10-06T10:01:56.200Z,40.90
2022-10-06T10:06:02.192Z,41.80
2022-10-06T10:10:23.389Z,42.60
2022-10-06T10:14:26.059Z,42.70
2022-10-06T10:18:30.819Z,43.00
2022-10-06T10:22:37.646Z,43.60
2022-10-06T10:26:49.623Z,42.70
2022-10-06T10:31:03.918Z,41.40
2022-10-06T10:35:16.604Z,42.80
2022-10-06T10:39:30.028Z,43.60
2022-10-06T10:43:37.049Z,43.50
2022-10-06T10:47:42.474Z,44.00
2022-10-06T10:51:50.820Z,44.70
2022-10-06T10:55:54.281Z,45.00
2022-10-06T11:00:01.550Z,44.50
2022-10-06T11:04:04.442Z,43.20
2022-10-06T11:08:14.882Z,41.20
2022-10-06T11:12:37.620Z,39.30
2022-10-06T11:16:46.875Z,41.10
2022-10-06T11:20:53.943Z,42.30
2022-10-06T11:29:33.326Z,40.20
2022-10-06T11:33:42.050Z,37.70
2022-10-06T11:37:50.235Z,38.70
2022-10-06T11:41:59.426Z,39.80
2022-10-06T11:46:08.008Z,40.20
2022-10-06T11:50:36.702Z,40.20
2022-10-06T11:54:48.820Z,40.60
2022-10-06T11:59:10.550Z,37.80
2022-10-06T12:03:55.733Z,39.70
2022-10-06T12:13:01.865Z,39.50
2022-10-06T12:17:19.477Z,36.30
2022-10-06T12:21:36.470Z,33.70
2022-10-06T12:25:47.426Z,31.70
2022-10-06T12:29:55.841Z,30.80
2022-10-06T12:33:58.817Z,30.40
2022-10-06T12:38:05.334Z,32.10
2022-10-06T12:42:19.262Z,35.10
2022-10-06T12:46:30.002Z,35.30
2022-10-06T12:50:33.041Z,35.80
2022-10-06T12:54:40.615Z,33.30
2022-10-06T12:58:43.306Z,31.90
2022-10-06T13:02:47.487Z,33.80
2022-10-06T13:06:50.728Z,35.20
2022-10-06T13:11:12.011Z,35.70
2022-10-06T13:15:20.778Z,35.90
2022-10-06T13:19:28.830Z,35.40
2022-10-06T13:23:33.443Z,35.10
2022-10-06T13:27:36.212Z,33.90
2022-10-06T13:31:51.801Z,33.70
2022-10-06T13:35:59.247Z,33.90
2022-10-06T13:40:02.457Z,33.30
2022-10-06T13:44:25.075Z,33.30
2022-10-06T13:48:29.767Z,33.00
2022-10-06T13:52:36.907Z,32.90
2022-10-06T13:56:40.865Z,31.90
2022-10-06T14:00:54.481Z,31.20
2022-10-06T14:05:32.582Z,31.00
2022-10-06T14:09:36.714Z,30.30
2022-10-06T14:13:46.698Z,29.90
2022-10-06T14:17:54.465Z,29.70
2022-10-06T14:21:57.172Z,29.40
2022-10-06T14:26:01.298Z,28.50
2022-10-06T14:30:04.544Z,27.60
2022-10-06T14:34:13.905Z,27.00
2022-10-06T14:38:16.735Z,26.40
2022-10-06T14:42:24.225Z,26.20
2022-10-06T14:46:27.142Z,26.00
2022-10-06T14:50:30.542Z,25.90
2022-10-06T14:54:34.211Z,25.90
2022-10-06T14:58:39.555Z,25.60
2022-10-06T15:02:42.353Z,25.40
2022-10-06T15:07:02.504Z,25.30
2022-10-06T15:11:05.253Z,25.00
2022-10-06T15:15:10.151Z,24.90
2022-10-06T15:19:13.569Z,24.70
2022-10-06T15:23:17.022Z,24.60
2022-10-06T15:27:37.171Z,24.30
2022-10-06T15:31:43.233Z,24.00
2022-10-06T15:36:00.753Z,23.90
2022-10-06T15:40:05.499Z,23.80
2022-10-06T15:44:08.943Z,23.60
2022-10-06T15:48:12.962Z,23.40
2022-10-06T15:52:17.518Z,23.20
2022-10-06T15:56:20.302Z,23.00
2022-10-06T16:00:22.960Z,22.80
2022-10-06T16:04:34.510Z,22.60
2022-10-06T16:08:37.166Z,22.40
2022-10-06T16:12:39.883Z,22.30
2022-10-06T16:16:43.947Z,22.20
2022-10-06T16:20:53.048Z,22.10
2022-10-06T16:24:55.703Z,22.00
2022-10-06T16:28:58.455Z,21.80
2022-10-06T16:33:01.114Z,21.70
2022-10-06T16:37:05.415Z,21.50
2022-10-06T16:41:08.605Z,21.30
2022-10-06T16:45:14.439Z,21.20
2022-10-06T16:49:17.129Z,21.10
2022-10-06T16:53:22.366Z,21.00
2022-10-06T16:57:25.346Z,20.90
2022-10-06T17:01:29.931Z,20.70
2022-10-06T17:05:34.571Z,20.70
2022-10-06T17:09:46.963Z,20.50
2022-10-06T17:13:58.763Z,20.40
2022-10-06T17:18:01.377Z,20.30
2022-10-06T17:22:04.151Z,20.20
2022-10-06T17:26:12.723Z,20.10
2022-10-06T17:30:16.631Z,20.00
2022-10-06T17:34:23.570Z,19.90
2022-10-06T17:38:30.649Z,19.80
2022-10-06T17:42:35.543Z,19.70
2022-10-06T17:46:39.870Z,19.60
2022-10-06T17:50:42.550Z,19.50
2022-10-06T17:54:46.288Z,19.40
2022-10-06T17:58:55.247Z,19.30
2022-10-06T18:03:00.240Z,19.20
2022-10-06T18:07:03.175Z,19.10
2022-10-06T18:11:23.941Z,19.00
2022-10-06T18:15:27.980Z,18.90
2022-10-06T18:19:32.461Z,18.80
2022-10-06T18:23:36.166Z,18.70
2022-10-06T18:27:39.382Z,18.60
2022-10-06T18:31:44.071Z,18.50
2022-10-06T18:40:16.358Z,18.30
2022-10-06T18:44:39.478Z,18.20
2022-10-06T18:49:00.503Z,18.10
2022-10-06T18:53:04.338Z,18.10
2022-10-06T18:57:07.241Z,18.00
2022-10-06T19:01:10.026Z,18.00
2022-10-06T19:05:14.200Z,17.90
2022-10-06T19:09:18.210Z,17.90
2022-10-06T19:13:22.323Z,17.80
2022-10-06T19:17:25.011Z,17.70
2022-10-06T19:21:29.024Z,17.70
2022-10-06T19:25:33.267Z,17.60
2022-10-06T19:29:37.531Z,17.60
2022-10-06T19:33:40.906Z,17.50
2022-10-06T19:37:45.613Z,17.40
2022-10-06T19:42:05.921Z,17.30
2022-10-06T19:46:08.686Z,17.20
2022-10-06T19:50:12.796Z,17.20
2022-10-06T19:54:19.537Z,17.10
2022-10-06T19:58:22.245Z,17.10
2022-10-06T20:02:24.964Z,17.00
2022-10-06T20:06:28.199Z,16.90
2022-10-06T20:10:32.834Z,16.80
2022-10-06T20:14:36.223Z,16.80
2022-10-06T20:18:40.646Z,16.70
2022-10-06T20:22:43.326Z,16.70
2022-10-06T20:26:48.444Z,16.70
2022-10-06T20:30:51.675Z,16.60
2022-10-06T20:34:54.379Z,16.50
2022-10-06T20:39:15.140Z,16.50
2022-10-06T20:43:19.173Z,16.40
2022-10-06T20:47:21.990Z,16.40
2022-10-06T20:51:27.721Z,16.40
2022-10-06T20:55:30.626Z,16.40
2022-10-06T20:59:35.322Z,16.40
2022-10-06T21:03:44.126Z,16.40
2022-10-06T21:07:47.039Z,16.40
2022-10-06T21:11:51.100Z,16.40
2022-10-06T21:15:57.451Z,16.40
2022-10-06T21:20:00.208Z,16.50
2022-10-06T21:24:03.431Z,16.50
2022-10-06T21:28:06.339Z,16.50
2022-10-06T21:32:10.542Z,16.50
2022-10-06T21:36:15.279Z,16.50
2022-10-06T21:40:18.004Z,16.50
2022-10-06T21:44:20.743Z,16.50
2022-10-06T21:48:24.821Z,16.50
2022-10-06T21:52:27.505Z,16.50
2022-10-06T21:56:31.856Z,16.60
2022-10-06T22:00:34.693Z,16.60
2022-10-06T22:04:38.780Z,16.60
2022-10-06T22:08:41.761Z,16.60
2022-10-06T22:12:44.437Z,16.60
2022-10-06T22:16:47.524Z,16.60
2022-10-06T22:20:51.588Z,16.60
2022-10-06T22:24:54.246Z,16.60
2022-10-06T22:28:58.354Z,16.60
2022-10-06T22:33:01.032Z,16.60
2022-10-06T22:37:05.296Z,16.60
2022-10-06T22:41:10.073Z,16.60
2022-10-06T22:45:12.732Z,16.60
2022-10-06T22:49:15.393Z,16.60
2022-10-06T22:53:21.038Z,16.60
2022-10-06T22:57:23.716Z,16.60
2022-10-06T23:01:27.043Z,16.60
2022-10-06T23:05:29.795Z,16.60
2022-10-06T23:09:33.845Z,16.60
2022-10-06T23:13:36.650Z,16.60
2022-10-06T23:17:39.361Z,16.50
2022-10-06T23:21:42.065Z,16.50
2022-10-06T23:25:46.295Z,16.50
2022-10-06T23:29:49.025Z,16.50
2022-10-06T23:33:51.791Z,16.50
2022-10-06T23:37:54.456Z,16.50
2022-10-06T23:41:58.517Z,16.40
2022-10-06T23:46:01.315Z,16.40
2022-10-06T23:50:04.343Z,16.40
2022-10-06T23:54:08.339Z,16.40
2022-10-06T23:58:14.563Z,16.20
